Betagas — V2KA8 — position and weather

sailwx.info

Track history (hours):
 
Tides and Currents Weather Stations Pressure Air Temp Water Temp Dewpoint Dewpoint Depression Visibility Wind Speed Wind Dir Waves Ship Positions

Betagas

Last reported at 2017-Jun-26 08:03 UTC. Time now 2017-Jun-26 10:25 UTC.
Position N 53°39' W 000°13'.

Length 114.6 m; beam 15.7 m; draft 7.4 m.

Type: Tanker. MMSI: 304050636.

Date/timePositionNaut miles runAvg speedWind from/ knotsBaromVisibWave heightAir tempDewpointWater temp
2017-Jun-26 08:03N 53°39' W 000°13'0 0.0
2017-Jun-26 05:21N 53°39' W 000°12'0 0.0
2017-Jun-26 05:00N 53°39' W 000°12'0 0.0
2017-Jun-26 04:30N 53°39' W 000°12'0 0.0
2017-Jun-26 03:48N 53°39' W 000°12'0 0.0
2017-Jun-26 03:30N 53°39' W 000°12'0 0.0
2017-Jun-26 02:57N 53°39' W 000°12'0 0.0
2017-Jun-26 02:15N 53°39' W 000°12'0 0.0
2017-Jun-26 01:57N 53°39' W 000°12'0 0.0
2017-Jun-26 01:27N 53°39' W 000°12'0 0.0
2017-Jun-26 00:57N 53°39' W 000°12'0 0.0
2017-Jun-26 00:27N 53°39' W 000°12'0 0.0
2017-Jun-25 23:51N 53°39' W 000°12'0 0.0
2017-Jun-25 23:27N 53°39' W 000°12'0 0.0
2017-Jun-25 22:57N 53°39' W 000°12'0 0.0
2017-Jun-25 22:30N 53°39' W 000°12'0 0.0
2017-Jun-25 21:15N 53°39' W 000°12'0 0.0
2017-Jun-25 20:57N 53°39' W 000°12'0 0.0
2017-Jun-25 20:06N 53°39' W 000°12'0 0.0
2017-Jun-25 20:00N 53°39' W 000°12'0 0.8
2017-Jun-25 19:31N 53°39' W 000°12'3 5.7
2017-Jun-25 19:00N 53°38' W 000°08'5 9.2
2017-Jun-25 18:29N 53°36' E 000°00'54 4.4
2017-Jun-25 06:24N 53°11' E 001°20'513.5
2017-Jun-25 06:00N 53°06' E 001°24'713.8
2017-Jun-25 05:30N 53°00' E 001°30'714.5
2017-Jun-25 05:01N 52°55' E 001°38'815.5
2017-Jun-25 04:31N 52°50' E 001°48'816.3
2017-Jun-25 04:00N 52°45' E 001°59'7714.8
2017-Jun-24 22:46N 51°44' E 003°15'1310.2
2017-Jun-24 21:31N 51°33' E 003°25'113.5
2017-Jun-24 21:27N 51°32' E 003°26'612.8
2017-Jun-24 21:01N 51°27' E 003°31'5 9.3
2017-Jun-24 20:30N 51°26' E 003°39'714.6
2017-Jun-24 20:00N 51°21' E 003°47'714.3
2017-Jun-24 19:30N 51°24' E 003°57'510.9
2017-Jun-24 19:01N 51°22' E 004°05'612.9
2017-Jun-24 18:30N 51°21' E 004°16'5 9.7
2017-Jun-24 17:59N 51°17' E 004°20'0 0.0
2017-Jun-24 17:31N 51°17' E 004°20'1 1.8
2017-Jun-24 16:58N 51°16' E 004°20'0 0.0
2017-Jun-24 16:28N 51°16' E 004°20'0 0.0
2017-Jun-24 16:00N 51°16' E 004°20'0 0.0
2017-Jun-24 15:30N 51°16' E 004°20'0 0.0
2017-Jun-24 15:00N 51°16' E 004°20'0 0.0
2017-Jun-24 14:00N 51°16' E 004°20'0 0.0
2017-Jun-24 13:30N 51°16' E 004°20'0 0.0
2017-Jun-24 13:00N 51°16' E 004°20'0 0.0
2017-Jun-24 12:30N 51°16' E 004°20'0 0.0
2017-Jun-24 11:57N 51°16' E 004°20'0 0.0
2017-Jun-24 11:30N 51°16' E 004°20'0 0.0
2017-Jun-24 11:00N 51°16' E 004°20'0 0.0
2017-Jun-24 10:30N 51°16' E 004°20'0 0.0
2017-Jun-24 10:00N 51°16' E 004°20'0 0.0
2017-Jun-24 09:30N 51°16' E 004°20'0 0.0
2017-Jun-24 09:00N 51°16' E 004°20'0 0.0
2017-Jun-24 08:21N 51°16' E 004°20'0 0.0
2017-Jun-24 08:00N 51°16' E 004°20'0 0.0
2017-Jun-24 07:30N 51°16' E 004°20'0 0.0
2017-Jun-24 07:00N 51°16' E 004°20'0 0.0
2017-Jun-24 06:27N 51°16' E 004°20'0 0.0
2017-Jun-24 06:00N 51°16' E 004°20'0 0.0
2017-Jun-24 05:30N 51°16' E 004°20'0 0.0
2017-Jun-24 04:51N 51°16' E 004°20'0 0.0
2017-Jun-24 04:30N 51°16' E 004°20'0 0.0
2017-Jun-24 03:57N 51°16' E 004°20'0 0.0
2017-Jun-24 03:18N 51°16' E 004°20'0 0.0
2017-Jun-24 03:00N 51°16' E 004°20'0 0.0
2017-Jun-24 02:30N 51°16' E 004°20'0 0.0
2017-Jun-24 02:00N 51°16' E 004°20'0 0.0
2017-Jun-24 01:30N 51°16' E 004°20'0 0.0
2017-Jun-24 01:00N 51°16' E 004°20'0 0.0
2017-Jun-24 00:30N 51°16' E 004°20'0 0.0
2017-Jun-24 00:00N 51°16' E 004°20'0 0.0
2017-Jun-23 23:24N 51°16' E 004°20'0 0.0
2017-Jun-23 23:00N 51°16' E 004°20'0 0.0
2017-Jun-23 22:27N 51°16' E 004°20'0 0.0
2017-Jun-23 22:00N 51°16' E 004°20'0 0.0
2017-Jun-23 21:30N 51°16' E 004°20'0 0.0
2017-Jun-23 21:00N 51°16' E 004°20'0 0.0
2017-Jun-23 20:24N 51°16' E 004°20'0 0.0
2017-Jun-23 20:00N 51°16' E 004°20'0 0.0
2017-Jun-23 19:27N 51°16' E 004°20'0 0.0
2017-Jun-23 19:00N 51°16' E 004°20'0 0.0
2017-Jun-23 18:30N 51°16' E 004°20'0 0.0
2017-Jun-23 17:57N 51°16' E 004°20'0 0.0
2017-Jun-23 17:27N 51°16' E 004°20'0 0.0
2017-Jun-23 16:57N 51°16' E 004°20'0 0.0
2017-Jun-23 16:30N 51°16' E 004°20'0 0.0
2017-Jun-23 15:54N 51°16' E 004°20'0 0.0
2017-Jun-23 15:27N 51°16' E 004°20'0 0.0
2017-Jun-23 15:00N 51°16' E 004°20'0 0.0
2017-Jun-23 13:54N 51°16' E 004°20'0 0.0
2017-Jun-23 13:30N 51°16' E 004°20'0 0.0
2017-Jun-23 13:00N 51°16' E 004°20'0 0.0
2017-Jun-23 12:24N 51°16' E 004°20'0 0.0
2017-Jun-23 11:57N 51°16' E 004°20'0 0.0
2017-Jun-23 11:30N 51°16' E 004°20'0 0.0
2017-Jun-23 11:00N 51°16' E 004°20'0 0.0
2017-Jun-23 10:27N 51°16' E 004°20'0 0.0
2017-Jun-23 10:00N 51°16' E 004°20'0 0.0
2017-Jun-23 09:30N 51°16' E 004°20'0 0.0
2017-Jun-23 09:00N 51°16' E 004°20'0 0.0
2017-Jun-23 08:27N 51°16' E 004°20'0 0.0
2017-Jun-23 07:48N 51°16' E 004°20'0 0.0
2017-Jun-23 07:31N 51°16' E 004°20'1 1.7
2017-Jun-23 07:01N 51°17' E 004°20'0 0.3
2017-Jun-23 06:31N 51°17' E 004°20'0 0.3
2017-Jun-23 06:00N 51°17' E 004°20'3 6.7
2017-Jun-23 05:30N 51°19' E 004°16'510.7
2017-Jun-23 05:01N 51°24' E 004°12'510.6
2017-Jun-23 04:31N 51°22' E 004°04'5 9.3
2017-Jun-23 04:00N 51°26' E 003°59'611.2
2017-Jun-23 03:30N 51°21' E 003°53'510.8
2017-Jun-23 03:00N 51°22' E 003°45'611.4
2017-Jun-23 02:30N 51°26' E 003°39'4 7.3
2017-Jun-23 02:01N 51°27' E 003°33'611.8
2017-Jun-23 01:30N 51°31' E 003°27'612.6
2017-Jun-23 01:00N 51°36' E 003°22'713.4
2017-Jun-23 00:30N 51°42' E 003°17'4 6.4
2017-Jun-22 23:56N 51°44' E 003°12'812.5
2017-Jun-22 23:15N 51°46' E 002°58'613.4
2017-Jun-22 22:50N 51°46' E 002°49'5814.8
2017-Jun-22 18:55N 52°37' E 002°06'717.2
2017-Jun-22 18:31N 52°44' E 002°03'917.0
2017-Jun-22 18:00N 52°49' E 001°51'917.3
2017-Jun-22 17:30N 52°54' E 001°39'917.5
2017-Jun-22 17:00N 53°00' E 001°30'816.7
2017-Jun-22 16:30N 53°08' E 001°23'816.5
2017-Jun-22 16:00N 53°15' E 001°15'5613.3
2017-Jun-22 11:47N 53°38' W 000°10'1 5.1
2017-Jun-22 11:30N 53°39' W 000°13'0 0.0
2017-Jun-22 11:00N 53°39' W 000°13'0 0.0
2017-Jun-20 21:56N 53°39' W 000°13'1 1.6
2017-Jun-20 21:30N 53°39' W 000°11'4 7.2
2017-Jun-20 21:00N 53°37' W 000°06'17 8.3
2017-Jun-20 18:57N 53°36' E 000°23'0 0.3
2017-Jun-20 18:19N 53°36' E 000°23'0 0.0
2017-Jun-20 16:55N 53°36' E 000°23'41 1.1
2017-Jun-19 03:58N 53°12' E 001°18'714.3
2017-Jun-19 03:31N 53°06' E 001°24'714.0
2017-Jun-19 03:00N 52°60' E 001°30'713.3
2017-Jun-19 02:30N 52°55' E 001°37'713.3
2017-Jun-19 02:00N 52°50' E 001°46'713.7
2017-Jun-19 01:30N 52°47' E 001°55'1313.9
2017-Jun-19 00:35N 52°37' E 002°08'615.3
2017-Jun-19 00:12N 52°32' E 002°13'6323.6
2017-Jun-18 21:33N 51°43' E 003°17'0 0.0
2017-Jun-18 21:30N 51°43' E 003°17'0 0.0
2017-Jun-18 21:00N 51°43' E 003°17'0 0.0
2017-Jun-18 20:30N 51°43' E 003°17'0 0.0
2017-Jun-18 20:00N 51°43' E 003°17'713.4
2017-Jun-18 19:28N 51°36' E 003°23'715.1
2017-Jun-18 19:00N 51°30' E 003°28'712.9
2017-Jun-18 18:30N 51°26' E 003°36'4 9.1
2017-Jun-18 18:00N 51°24' E 003°43'612.2
2017-Jun-18 17:30N 51°21' E 003°51'612.6
2017-Jun-18 17:00N 51°25' E 003°58'5 9.3
2017-Jun-18 16:30N 51°22' E 004°04'611.1
2017-Jun-18 16:00N 51°23' E 004°13'611.9
2017-Jun-18 15:30N 51°18' E 004°18'2 3.4
2017-Jun-18 15:01N 51°17' E 004°20'1 0.9
2017-Jun-18 14:00N 51°16' E 004°20'0 0.0
2017-Jun-18 13:23N 51°16' E 004°20'0 0.0
2017-Jun-18 12:53N 51°16' E 004°20'0 0.0
2017-Jun-18 12:29N 51°16' E 004°20'0 0.0
2017-Jun-18 11:59N 51°16' E 004°20'0 0.0
2017-Jun-18 11:29N 51°16' E 004°20'0 0.0
2017-Jun-18 10:59N 51°16' E 004°20'0 0.0
2017-Jun-18 10:29N 51°16' E 004°20'0 0.0
2017-Jun-18 09:59N 51°16' E 004°20'0 0.0
2017-Jun-18 09:26N 51°16' E 004°20'0 0.0
2017-Jun-18 08:59N 51°16' E 004°20'0 0.0
2017-Jun-18 08:29N 51°16' E 004°20'0 0.0
2017-Jun-18 07:59N 51°16' E 004°20'0 0.0
2017-Jun-18 07:29N 51°16' E 004°20'0 0.0
2017-Jun-18 06:59N 51°16' E 004°20'0 0.0
2017-Jun-18 06:29N 51°16' E 004°20'0 0.0
2017-Jun-18 05:56N 51°16' E 004°20'0 0.0
2017-Jun-18 05:26N 51°16' E 004°20'0 0.0
2017-Jun-18 04:59N 51°16' E 004°20'0 0.0
2017-Jun-18 04:29N 51°16' E 004°20'0 0.0
2017-Jun-18 03:59N 51°16' E 004°20'0 0.0
2017-Jun-18 03:29N 51°16' E 004°20'0 0.0
2017-Jun-18 02:59N 51°16' E 004°20'0 0.0
2017-Jun-18 02:29N 51°16' E 004°20'0 0.0
2017-Jun-18 01:59N 51°16' E 004°20'0 0.0
2017-Jun-18 01:29N 51°16' E 004°20'0 0.0
2017-Jun-18 00:59N 51°16' E 004°20'0 0.0
2017-Jun-18 00:29N 51°16' E 004°20'0 0.0
2017-Jun-17 23:59N 51°16' E 004°20'0 0.0
2017-Jun-17 23:29N 51°16' E 004°20'0 0.0
2017-Jun-17 22:59N 51°16' E 004°20'0 0.0
2017-Jun-17 22:29N 51°16' E 004°20'0 0.0
2017-Jun-17 21:59N 51°16' E 004°20'0 0.0
2017-Jun-17 21:29N 51°16' E 004°20'0 0.0
2017-Jun-17 20:59N 51°16' E 004°20'0 0.0
2017-Jun-17 20:29N 51°16' E 004°20'0 0.0
2017-Jun-17 19:59N 51°16' E 004°20'0 0.0
2017-Jun-17 19:23N 51°16' E 004°20'0 0.0
2017-Jun-17 18:59N 51°16' E 004°20'0 0.0
2017-Jun-17 18:29N 51°16' E 004°20'0 0.0
2017-Jun-17 17:56N 51°16' E 004°20'0 0.0
2017-Jun-17 17:29N 51°16' E 004°20'0 0.0
2017-Jun-17 16:59N 51°16' E 004°20'0 0.0
2017-Jun-17 16:29N 51°16' E 004°20'0 0.0
2017-Jun-17 15:59N 51°16' E 004°20'0 0.0
2017-Jun-17 15:29N 51°16' E 004°20'0 0.0
2017-Jun-17 14:59N 51°16' E 004°20'0 0.0
2017-Jun-17 14:29N 51°16' E 004°20'0 0.0
2017-Jun-17 13:29N 51°16' E 004°20'0 0.0
2017-Jun-17 12:56N 51°16' E 004°20'0 0.0
2017-Jun-17 12:29N 51°16' E 004°20'0 0.0
2017-Jun-17 11:59N 51°16' E 004°20'0 0.0
2017-Jun-17 11:29N 51°16' E 004°20'0 0.0
2017-Jun-17 10:59N 51°16' E 004°20'0 0.0
2017-Jun-17 10:29N 51°16' E 004°20'0 0.0
2017-Jun-17 09:59N 51°16' E 004°20'0 0.0
2017-Jun-17 09:29N 51°16' E 004°20'0 0.0
2017-Jun-17 08:59N 51°16' E 004°20'0 0.0
2017-Jun-17 08:23N 51°16' E 004°20'0 0.0
2017-Jun-17 07:56N 51°16' E 004°20'0 0.0
2017-Jun-17 07:29N 51°16' E 004°20'0 0.0
2017-Jun-17 06:56N 51°16' E 004°20'0 0.0
2017-Jun-17 06:29N 51°16' E 004°20'0 0.5
2017-Jun-17 06:00N 51°16' E 004°20'1 1.6
2017-Jun-17 05:31N 51°17' E 004°20'0 0.0
2017-Jun-17 05:01N 51°17' E 004°20'0 0.2
2017-Jun-17 04:30N 51°17' E 004°20'3 6.4
2017-Jun-17 04:01N 51°19' E 004°16'611.3
2017-Jun-17 03:30N 51°24' E 004°11'611.2
2017-Jun-17 03:00N 51°25' E 004°02'3 6.7
2017-Jun-17 02:31N 51°23' E 003°57'713.5
2017-Jun-17 02:00N 51°22' E 003°46'713.6
2017-Jun-17 01:30N 51°26' E 003°39'510.5
2017-Jun-17 01:00N 51°28' E 003°31'815.2
2017-Jun-17 00:30N 51°34' E 003°24'714.2
2017-Jun-17 00:01N 51°40' E 003°18'5 9.6
2017-Jun-16 23:30N 51°44' E 003°14'5 9.5
2017-Jun-16 23:00N 51°47' E 003°21'1 1.4
2017-Jun-16 22:30N 51°47' E 003°22'0 0.0
2017-Jun-16 22:00N 51°47' E 003°22'0 0.0
2017-Jun-16 21:30N 51°47' E 003°22'0 0.0
2017-Jun-16 21:00N 51°47' E 003°22'0 0.0
2017-Jun-16 20:30N 51°47' E 003°22'0 0.0
2017-Jun-16 20:00N 51°47' E 003°22'0 0.0
2017-Jun-16 19:30N 51°47' E 003°22'0 0.0
2017-Jun-16 19:00N 51°47' E 003°22'0 0.0
2017-Jun-16 18:30N 51°47' E 003°22'0 0.0
2017-Jun-16 18:00N 51°47' E 003°22'0 0.0
2017-Jun-16 17:30N 51°47' E 003°22'0 0.0
2017-Jun-16 12:21N 51°47' E 003°22'0 0.0
2017-Jun-16 12:00N 51°47' E 003°22'0 0.0
2017-Jun-16 11:30N 51°47' E 003°22'0 0.2
2017-Jun-16 11:00N 51°47' E 003°22'0 0.1
2017-Jun-16 10:30N 51°47' E 003°22'0 0.1
2017-Jun-16 10:00N 51°47' E 003°22'  
Track history (hours):
 
Tides and Currents Weather Stations Pressure Air Temp Water Temp Dewpoint Dewpoint Depression Visibility Wind Speed Wind Dir Waves Ship Positions

Betagas

Last reported at 2017-Jun-26 08:03 UTC. Time now 2017-Jun-26 10:25 UTC.
Position N 53°39' W 000°13'.

Length 114.6 m; beam 15.7 m; draft 7.4 m.

Type: Tanker. MMSI: 304050636.

Date/timePositionNaut miles runAvg speedWind from/ knotsBaromVisibWave heightAir tempDewpointWater temp
2017-Jun-26 08:03N 53°39' W 000°13'0 0.0
2017-Jun-26 05:21N 53°39' W 000°12'0 0.0
2017-Jun-26 05:00N 53°39' W 000°12'0 0.0
2017-Jun-26 04:30N 53°39' W 000°12'0 0.0
2017-Jun-26 03:48N 53°39' W 000°12'0 0.0
2017-Jun-26 03:30N 53°39' W 000°12'0 0.0
2017-Jun-26 02:57N 53°39' W 000°12'0 0.0
2017-Jun-26 02:15N 53°39' W 000°12'0 0.0
2017-Jun-26 01:57N 53°39' W 000°12'0 0.0
2017-Jun-26 01:27N 53°39' W 000°12'0 0.0
2017-Jun-26 00:57N 53°39' W 000°12'0 0.0
2017-Jun-26 00:27N 53°39' W 000°12'0 0.0
2017-Jun-25 23:51N 53°39' W 000°12'0 0.0
2017-Jun-25 23:27N 53°39' W 000°12'0 0.0
2017-Jun-25 22:57N 53°39' W 000°12'0 0.0
2017-Jun-25 22:30N 53°39' W 000°12'0 0.0
2017-Jun-25 21:15N 53°39' W 000°12'0 0.0
2017-Jun-25 20:57N 53°39' W 000°12'0 0.0
2017-Jun-25 20:06N 53°39' W 000°12'0 0.0
2017-Jun-25 20:00N 53°39' W 000°12'0 0.8
2017-Jun-25 19:31N 53°39' W 000°12'3 5.7
2017-Jun-25 19:00N 53°38' W 000°08'5 9.2
2017-Jun-25 18:29N 53°36' E 000°00'54 4.4
2017-Jun-25 06:24N 53°11' E 001°20'513.5
2017-Jun-25 06:00N 53°06' E 001°24'713.8
2017-Jun-25 05:30N 53°00' E 001°30'714.5
2017-Jun-25 05:01N 52°55' E 001°38'815.5
2017-Jun-25 04:31N 52°50' E 001°48'816.3
2017-Jun-25 04:00N 52°45' E 001°59'7714.8
2017-Jun-24 22:46N 51°44' E 003°15'1310.2
2017-Jun-24 21:31N 51°33' E 003°25'113.5
2017-Jun-24 21:27N 51°32' E 003°26'612.8
2017-Jun-24 21:01N 51°27' E 003°31'5 9.3
2017-Jun-24 20:30N 51°26' E 003°39'714.6
2017-Jun-24 20:00N 51°21' E 003°47'714.3
2017-Jun-24 19:30N 51°24' E 003°57'510.9
2017-Jun-24 19:01N 51°22' E 004°05'612.9
2017-Jun-24 18:30N 51°21' E 004°16'5 9.7
2017-Jun-24 17:59N 51°17' E 004°20'0 0.0
2017-Jun-24 17:31N 51°17' E 004°20'1 1.8
2017-Jun-24 16:58N 51°16' E 004°20'0 0.0
2017-Jun-24 16:28N 51°16' E 004°20'0 0.0
2017-Jun-24 16:00N 51°16' E 004°20'0 0.0
2017-Jun-24 15:30N 51°16' E 004°20'0 0.0
2017-Jun-24 15:00N 51°16' E 004°20'0 0.0
2017-Jun-24 14:00N 51°16' E 004°20'0 0.0
2017-Jun-24 13:30N 51°16' E 004°20'0 0.0
2017-Jun-24 13:00N 51°16' E 004°20'0 0.0
2017-Jun-24 12:30N 51°16' E 004°20'0 0.0
2017-Jun-24 11:57N 51°16' E 004°20'0 0.0
2017-Jun-24 11:30N 51°16' E 004°20'0 0.0
2017-Jun-24 11:00N 51°16' E 004°20'0 0.0
2017-Jun-24 10:30N 51°16' E 004°20'0 0.0
2017-Jun-24 10:00N 51°16' E 004°20'0 0.0
2017-Jun-24 09:30N 51°16' E 004°20'0 0.0
2017-Jun-24 09:00N 51°16' E 004°20'0 0.0
2017-Jun-24 08:21N 51°16' E 004°20'0 0.0
2017-Jun-24 08:00N 51°16' E 004°20'0 0.0
2017-Jun-24 07:30N 51°16' E 004°20'0 0.0
2017-Jun-24 07:00N 51°16' E 004°20'0 0.0
2017-Jun-24 06:27N 51°16' E 004°20'0 0.0
2017-Jun-24 06:00N 51°16' E 004°20'0 0.0
2017-Jun-24 05:30N 51°16' E 004°20'0 0.0
2017-Jun-24 04:51N 51°16' E 004°20'0 0.0
2017-Jun-24 04:30N 51°16' E 004°20'0 0.0
2017-Jun-24 03:57N 51°16' E 004°20'0 0.0
2017-Jun-24 03:18N 51°16' E 004°20'0 0.0
2017-Jun-24 03:00N 51°16' E 004°20'0 0.0
2017-Jun-24 02:30N 51°16' E 004°20'0 0.0
2017-Jun-24 02:00N 51°16' E 004°20'0 0.0
2017-Jun-24 01:30N 51°16' E 004°20'0 0.0
2017-Jun-24 01:00N 51°16' E 004°20'0 0.0
2017-Jun-24 00:30N 51°16' E 004°20'0 0.0
2017-Jun-24 00:00N 51°16' E 004°20'0 0.0
2017-Jun-23 23:24N 51°16' E 004°20'0 0.0
2017-Jun-23 23:00N 51°16' E 004°20'0 0.0
2017-Jun-23 22:27N 51°16' E 004°20'0 0.0
2017-Jun-23 22:00N 51°16' E 004°20'0 0.0
2017-Jun-23 21:30N 51°16' E 004°20'0 0.0
2017-Jun-23 21:00N 51°16' E 004°20'0 0.0
2017-Jun-23 20:24N 51°16' E 004°20'0 0.0
2017-Jun-23 20:00N 51°16' E 004°20'0 0.0
2017-Jun-23 19:27N 51°16' E 004°20'0 0.0
2017-Jun-23 19:00N 51°16' E 004°20'0 0.0
2017-Jun-23 18:30N 51°16' E 004°20'0 0.0
2017-Jun-23 17:57N 51°16' E 004°20'0 0.0
2017-Jun-23 17:27N 51°16' E 004°20'0 0.0
2017-Jun-23 16:57N 51°16' E 004°20'0 0.0
2017-Jun-23 16:30N 51°16' E 004°20'0 0.0
2017-Jun-23 15:54N 51°16' E 004°20'0 0.0
2017-Jun-23 15:27N 51°16' E 004°20'0 0.0
2017-Jun-23 15:00N 51°16' E 004°20'0 0.0
2017-Jun-23 13:54N 51°16' E 004°20'0 0.0
2017-Jun-23 13:30N 51°16' E 004°20'0 0.0
2017-Jun-23 13:00N 51°16' E 004°20'0 0.0
2017-Jun-23 12:24N 51°16' E 004°20'0 0.0
2017-Jun-23 11:57N 51°16' E 004°20'0 0.0
2017-Jun-23 11:30N 51°16' E 004°20'0 0.0
2017-Jun-23 11:00N 51°16' E 004°20'0 0.0
2017-Jun-23 10:27N 51°16' E 004°20'0 0.0
2017-Jun-23 10:00N 51°16' E 004°20'0 0.0
2017-Jun-23 09:30N 51°16' E 004°20'0 0.0
2017-Jun-23 09:00N 51°16' E 004°20'0 0.0
2017-Jun-23 08:27N 51°16' E 004°20'0 0.0
2017-Jun-23 07:48N 51°16' E 004°20'0 0.0
2017-Jun-23 07:31N 51°16' E 004°20'1 1.7
2017-Jun-23 07:01N 51°17' E 004°20'0 0.3
2017-Jun-23 06:31N 51°17' E 004°20'0 0.3
2017-Jun-23 06:00N 51°17' E 004°20'3 6.7
2017-Jun-23 05:30N 51°19' E 004°16'510.7
2017-Jun-23 05:01N 51°24' E 004°12'510.6
2017-Jun-23 04:31N 51°22' E 004°04'5 9.3
2017-Jun-23 04:00N 51°26' E 003°59'611.2
2017-Jun-23 03:30N 51°21' E 003°53'510.8
2017-Jun-23 03:00N 51°22' E 003°45'611.4
2017-Jun-23 02:30N 51°26' E 003°39'4 7.3
2017-Jun-23 02:01N 51°27' E 003°33'611.8
2017-Jun-23 01:30N 51°31' E 003°27'612.6
2017-Jun-23 01:00N 51°36' E 003°22'713.4
2017-Jun-23 00:30N 51°42' E 003°17'4 6.4
2017-Jun-22 23:56N 51°44' E 003°12'812.5
2017-Jun-22 23:15N 51°46' E 002°58'613.4
2017-Jun-22 22:50N 51°46' E 002°49'5814.8
2017-Jun-22 18:55N 52°37' E 002°06'717.2
2017-Jun-22 18:31N 52°44' E 002°03'917.0
2017-Jun-22 18:00N 52°49' E 001°51'917.3
2017-Jun-22 17:30N 52°54' E 001°39'917.5
2017-Jun-22 17:00N 53°00' E 001°30'816.7
2017-Jun-22 16:30N 53°08' E 001°23'816.5
2017-Jun-22 16:00N 53°15' E 001°15'5613.3
2017-Jun-22 11:47N 53°38' W 000°10'1 5.1
2017-Jun-22 11:30N 53°39' W 000°13'0 0.0
2017-Jun-22 11:00N 53°39' W 000°13'0 0.0
2017-Jun-20 21:56N 53°39' W 000°13'1 1.6
2017-Jun-20 21:30N 53°39' W 000°11'4 7.2
2017-Jun-20 21:00N 53°37' W 000°06'17 8.3
2017-Jun-20 18:57N 53°36' E 000°23'0 0.3
2017-Jun-20 18:19N 53°36' E 000°23'0 0.0
2017-Jun-20 16:55N 53°36' E 000°23'41 1.1
2017-Jun-19 03:58N 53°12' E 001°18'714.3
2017-Jun-19 03:31N 53°06' E 001°24'714.0
2017-Jun-19 03:00N 52°60' E 001°30'713.3
2017-Jun-19 02:30N 52°55' E 001°37'713.3
2017-Jun-19 02:00N 52°50' E 001°46'713.7
2017-Jun-19 01:30N 52°47' E 001°55'1313.9
2017-Jun-19 00:35N 52°37' E 002°08'615.3
2017-Jun-19 00:12N 52°32' E 002°13'6323.6
2017-Jun-18 21:33N 51°43' E 003°17'0 0.0
2017-Jun-18 21:30N 51°43' E 003°17'0 0.0
2017-Jun-18 21:00N 51°43' E 003°17'0 0.0
2017-Jun-18 20:30N 51°43' E 003°17'0 0.0
2017-Jun-18 20:00N 51°43' E 003°17'713.4
2017-Jun-18 19:28N 51°36' E 003°23'715.1
2017-Jun-18 19:00N 51°30' E 003°28'712.9
2017-Jun-18 18:30N 51°26' E 003°36'4 9.1
2017-Jun-18 18:00N 51°24' E 003°43'612.2
2017-Jun-18 17:30N 51°21' E 003°51'612.6
2017-Jun-18 17:00N 51°25' E 003°58'5 9.3
2017-Jun-18 16:30N 51°22' E 004°04'611.1
2017-Jun-18 16:00N 51°23' E 004°13'611.9
2017-Jun-18 15:30N 51°18' E 004°18'2 3.4
2017-Jun-18 15:01N 51°17' E 004°20'1 0.9
2017-Jun-18 14:00N 51°16' E 004°20'0 0.0
2017-Jun-18 13:23N 51°16' E 004°20'0 0.0
2017-Jun-18 12:53N 51°16' E 004°20'0 0.0
2017-Jun-18 12:29N 51°16' E 004°20'0 0.0
2017-Jun-18 11:59N 51°16' E 004°20'0 0.0
2017-Jun-18 11:29N 51°16' E 004°20'0 0.0
2017-Jun-18 10:59N 51°16' E 004°20'0 0.0
2017-Jun-18 10:29N 51°16' E 004°20'0 0.0
2017-Jun-18 09:59N 51°16' E 004°20'0 0.0
2017-Jun-18 09:26N 51°16' E 004°20'0 0.0
2017-Jun-18 08:59N 51°16' E 004°20'0 0.0
2017-Jun-18 08:29N 51°16' E 004°20'0 0.0
2017-Jun-18 07:59N 51°16' E 004°20'0 0.0
2017-Jun-18 07:29N 51°16' E 004°20'0 0.0
2017-Jun-18 06:59N 51°16' E 004°20'0 0.0
2017-Jun-18 06:29N 51°16' E 004°20'0 0.0
2017-Jun-18 05:56N 51°16' E 004°20'0 0.0
2017-Jun-18 05:26N 51°16' E 004°20'0 0.0
2017-Jun-18 04:59N 51°16' E 004°20'0 0.0
2017-Jun-18 04:29N 51°16' E 004°20'0 0.0
2017-Jun-18 03:59N 51°16' E 004°20'0 0.0
2017-Jun-18 03:29N 51°16' E 004°20'0 0.0
2017-Jun-18 02:59N 51°16' E 004°20'0 0.0
2017-Jun-18 02:29N 51°16' E 004°20'0 0.0
2017-Jun-18 01:59N 51°16' E 004°20'0 0.0
2017-Jun-18 01:29N 51°16' E 004°20'0 0.0
2017-Jun-18 00:59N 51°16' E 004°20'0 0.0
2017-Jun-18 00:29N 51°16' E 004°20'0 0.0
2017-Jun-17 23:59N 51°16' E 004°20'0 0.0
2017-Jun-17 23:29N 51°16' E 004°20'0 0.0
2017-Jun-17 22:59N 51°16' E 004°20'0 0.0
2017-Jun-17 22:29N 51°16' E 004°20'0 0.0
2017-Jun-17 21:59N 51°16' E 004°20'0 0.0
2017-Jun-17 21:29N 51°16' E 004°20'0 0.0
2017-Jun-17 20:59N 51°16' E 004°20'0 0.0
2017-Jun-17 20:29N 51°16' E 004°20'0 0.0
2017-Jun-17 19:59N 51°16' E 004°20'0 0.0
2017-Jun-17 19:23N 51°16' E 004°20'0 0.0
2017-Jun-17 18:59N 51°16' E 004°20'0 0.0
2017-Jun-17 18:29N 51°16' E 004°20'0 0.0
2017-Jun-17 17:56N 51°16' E 004°20'0 0.0
2017-Jun-17 17:29N 51°16' E 004°20'0 0.0
2017-Jun-17 16:59N 51°16' E 004°20'0 0.0
2017-Jun-17 16:29N 51°16' E 004°20'0 0.0
2017-Jun-17 15:59N 51°16' E 004°20'0 0.0
2017-Jun-17 15:29N 51°16' E 004°20'0 0.0
2017-Jun-17 14:59N 51°16' E 004°20'0 0.0
2017-Jun-17 14:29N 51°16' E 004°20'0 0.0
2017-Jun-17 13:29N 51°16' E 004°20'0 0.0
2017-Jun-17 12:56N 51°16' E 004°20'0 0.0
2017-Jun-17 12:29N 51°16' E 004°20'0 0.0
2017-Jun-17 11:59N 51°16' E 004°20'0 0.0
2017-Jun-17 11:29N 51°16' E 004°20'0 0.0
2017-Jun-17 10:59N 51°16' E 004°20'0 0.0
2017-Jun-17 10:29N 51°16' E 004°20'0 0.0
2017-Jun-17 09:59N 51°16' E 004°20'0 0.0
2017-Jun-17 09:29N 51°16' E 004°20'0 0.0
2017-Jun-17 08:59N 51°16' E 004°20'0 0.0
2017-Jun-17 08:23N 51°16' E 004°20'0 0.0
2017-Jun-17 07:56N 51°16' E 004°20'0 0.0
2017-Jun-17 07:29N 51°16' E 004°20'0 0.0
2017-Jun-17 06:56N 51°16' E 004°20'0 0.0
2017-Jun-17 06:29N 51°16' E 004°20'0 0.5
2017-Jun-17 06:00N 51°16' E 004°20'1 1.6
2017-Jun-17 05:31N 51°17' E 004°20'0 0.0
2017-Jun-17 05:01N 51°17' E 004°20'0 0.2
2017-Jun-17 04:30N 51°17' E 004°20'3 6.4
2017-Jun-17 04:01N 51°19' E 004°16'611.3
2017-Jun-17 03:30N 51°24' E 004°11'611.2
2017-Jun-17 03:00N 51°25' E 004°02'3 6.7
2017-Jun-17 02:31N 51°23' E 003°57'713.5
2017-Jun-17 02:00N 51°22' E 003°46'713.6
2017-Jun-17 01:30N 51°26' E 003°39'510.5
2017-Jun-17 01:00N 51°28' E 003°31'815.2
2017-Jun-17 00:30N 51°34' E 003°24'714.2
2017-Jun-17 00:01N 51°40' E 003°18'5 9.6
2017-Jun-16 23:30N 51°44' E 003°14'5 9.5
2017-Jun-16 23:00N 51°47' E 003°21'1 1.4
2017-Jun-16 22:30N 51°47' E 003°22'0 0.0
2017-Jun-16 22:00N 51°47' E 003°22'0 0.0
2017-Jun-16 21:30N 51°47' E 003°22'0 0.0
2017-Jun-16 21:00N 51°47' E 003°22'0 0.0
2017-Jun-16 20:30N 51°47' E 003°22'0 0.0
2017-Jun-16 20:00N 51°47' E 003°22'0 0.0
2017-Jun-16 19:30N 51°47' E 003°22'0 0.0
2017-Jun-16 19:00N 51°47' E 003°22'0 0.0
2017-Jun-16 18:30N 51°47' E 003°22'0 0.0
2017-Jun-16 18:00N 51°47' E 003°22'0 0.0
2017-Jun-16 17:30N 51°47' E 003°22'0 0.0
2017-Jun-16 12:21N 51°47' E 003°22'0 0.0
2017-Jun-16 12:00N 51°47' E 003°22'0 0.0
2017-Jun-16 11:30N 51°47' E 003°22'0 0.2
2017-Jun-16 11:00N 51°47' E 003°22'0 0.1
2017-Jun-16 10:30N 51°47' E 003°22'0 0.1
2017-Jun-16 10:00N 51°47' E 003°22'  

Dump ship's entire track history